sensor_id;sensor_type;location;lat;lon;timestamp;pressure;altitude;pressure_sealevel;temperature;humidity
48942;BME280;35340;52.378;4.648;2023-01-15T00:00:56;99752.56;;;16.83;68.31
48942;BME280;35340;52.378;4.648;2023-01-15T00:03:22;99748.22;;;16.84;68.21
48942;BME280;35340;52.378;4.648;2023-01-15T00:05:47;99749.91;;;16.85;67.37
48942;BME280;35340;52.378;4.648;2023-01-15T00:08:13;99762.09;;;16.83;67.54
48942;BME280;35340;52.378;4.648;2023-01-15T00:10:38;99760.38;;;16.83;68.30
48942;BME280;35340;52.378;4.648;2023-01-15T00:13:03;99763.81;;;16.84;67.56
48942;BME280;35340;52.378;4.648;2023-01-15T00:15:30;99755.16;;;16.83;68.25
48942;BME280;35340;52.378;4.648;2023-01-15T00:17:55;99754.28;;;16.84;67.83
48942;BME280;35340;52.378;4.648;2023-01-15T00:20:20;99746.50;;;16.83;67.21
48942;BME280;35340;52.378;4.648;2023-01-15T00:22:46;99746.50;;;16.83;67.38
48942;BME280;35340;52.378;4.648;2023-01-15T00:25:11;99753.44;;;16.82;67.70
48942;BME280;35340;52.378;4.648;2023-01-15T00:27:55;99745.66;;;16.82;67.59
48942;BME280;35340;52.378;4.648;2023-01-15T00:30:21;99749.97;;;16.83;67.21
48942;BME280;35340;52.378;4.648;2023-01-15T00:32:48;99733.50;;;16.83;67.68
48942;BME280;35340;52.378;4.648;2023-01-15T00:35:19;99744.81;;;16.82;67.49
48942;BME280;35340;52.378;4.648;2023-01-15T00:37:46;99729.22;;;16.82;67.63
48942;BME280;35340;52.378;4.648;2023-01-15T00:40:13;99733.56;;;16.81;67.05
48942;BME280;35340;52.378;4.648;2023-01-15T00:42:39;99739.59;;;16.82;67.20
48942;BME280;35340;52.378;4.648;2023-01-15T00:45:06;99740.47;;;16.82;67.04
48942;BME280;35340;52.378;4.648;2023-01-15T00:47:39;99726.63;;;16.82;66.99
48942;BME280;35340;52.378;4.648;2023-01-15T00:50:07;99720.56;;;16.81;66.81
48942;BME280;35340;52.378;4.648;2023-01-15T00:52:33;99737.03;;;16.80;66.86
48942;BME280;35340;52.378;4.648;2023-01-15T00:54:58;99731.84;;;16.80;67.00
48942;BME280;35340;52.378;4.648;2023-01-15T00:57:24;99738.75;;;16.81;66.68
48942;BME280;35340;52.378;4.648;2023-01-15T00:59:49;99731.84;;;16.80;67.03
48942;BME280;35340;52.378;4.648;2023-01-15T01:02:15;99739.63;;;16.80;66.72
48942;BME280;35340;52.378;4.648;2023-01-15T01:04:40;99726.66;;;16.80;66.42
48942;BME280;35340;52.378;4.648;2023-01-15T01:07:05;99732.69;;;16.81;66.70
48942;BME280;35340;52.378;4.648;2023-01-15T01:09:31;99739.63;;;16.80;65.79
48942;BME280;35340;52.378;4.648;2023-01-15T01:11:56;99729.25;;;16.80;66.40
48942;BME280;35340;52.378;4.648;2023-01-15T01:14:22;99738.78;;;16.80;66.73
48942;BME280;35340;52.378;4.648;2023-01-15T01:16:47;99752.66;;;16.79;65.84
48942;BME280;35340;52.378;4.648;2023-01-15T01:19:17;99743.09;;;16.79;66.62
48942;BME280;35340;52.378;4.648;2023-01-15T01:21:43;99741.38;;;16.80;65.93
48942;BME280;35340;52.378;4.648;2023-01-15T01:24:18;99758.69;;;16.79;66.01
48942;BME280;35340;52.378;4.648;2023-01-15T01:26:44;99749.19;;;16.80;65.59
48942;BME280;35340;52.378;4.648;2023-01-15T01:29:14;99757.84;;;16.79;65.66
48942;BME280;35340;52.378;4.648;2023-01-15T01:31:40;99754.38;;;16.80;66.33
48942;BME280;35340;52.378;4.648;2023-01-15T01:34:06;99748.31;;;16.79;65.35
48942;BME280;35340;52.378;4.648;2023-01-15T01:36:35;99757.84;;;16.79;65.59
48942;BME280;35340;52.378;4.648;2023-01-15T01:39:02;99763.03;;;16.80;65.75
48942;BME280;35340;52.378;4.648;2023-01-15T01:41:28;99760.44;;;16.79;65.57
48942;BME280;35340;52.378;4.648;2023-01-15T01:43:59;99763.03;;;16.80;65.74
48942;BME280;35340;52.378;4.648;2023-01-15T01:46:27;99764.78;;;16.80;65.89
48942;BME280;35340;52.378;4.648;2023-01-15T01:49:02;99756.09;;;16.79;65.83
48942;BME280;35340;52.378;4.648;2023-01-15T01:51:33;99765.63;;;16.80;65.99
48942;BME280;35340;52.378;4.648;2023-01-15T01:54:00;99762.19;;;16.80;65.19
48942;BME280;35340;52.378;4.648;2023-01-15T01:56:26;99765.63;;;16.80;65.53
48942;BME280;35340;52.378;4.648;2023-01-15T01:58:53;99760.41;;;16.80;65.79
48942;BME280;35340;52.378;4.648;2023-01-15T02:01:20;99763.03;;;16.79;65.13
48942;BME280;35340;52.378;4.648;2023-01-15T02:03:46;99774.44;;;16.72;68.36
48942;BME280;35340;52.378;4.648;2023-01-15T02:06:12;99779.00;;;16.62;68.08
48942;BME280;35340;52.378;4.648;2023-01-15T02:08:39;99762.63;;;16.58;67.96
48942;BME280;35340;52.378;4.648;2023-01-15T02:11:06;99758.34;;;16.56;68.40
48942;BME280;35340;52.378;4.648;2023-01-15T02:16:23;99748.00;;;16.54;68.67
48942;BME280;35340;52.378;4.648;2023-01-15T02:24:29;99760.44;;;16.40;68.72
48942;BME280;35340;52.378;4.648;2023-01-15T02:27:03;99755.25;;;16.40;68.94
48942;BME280;35340;52.378;4.648;2023-01-15T02:29:58;99762.16;;;16.39;69.05
48942;BME280;35340;52.378;4.648;2023-01-15T02:35:35;99768.25;;;16.38;68.79
48942;BME280;35340;52.378;4.648;2023-01-15T02:38:05;99760.47;;;16.38;68.89
48942;BME280;35340;52.378;4.648;2023-01-15T02:40:33;99774.31;;;16.37;68.66
48942;BME280;35340;52.378;4.648;2023-01-15T02:43:00;99763.91;;;16.39;69.16
48942;BME280;35340;52.378;4.648;2023-01-15T02:45:38;99759.63;;;16.38;69.02
48942;BME280;35340;52.378;4.648;2023-01-15T02:48:12;99767.44;;;16.36;69.19
48942;BME280;35340;52.378;4.648;2023-01-15T02:50:46;99762.25;;;16.36;69.06
48942;BME280;35340;52.378;4.648;2023-01-15T02:53:18;99760.50;;;16.37;69.38
48942;BME280;35340;52.378;4.648;2023-01-15T02:55:48;99757.91;;;16.37;68.86
48942;BME280;35340;52.378;4.648;2023-01-15T02:58:22;99752.75;;;16.35;69.19
48942;BME280;35340;52.378;4.648;2023-01-15T03:00:51;99751.00;;;16.36;69.11
48942;BME280;35340;52.378;4.648;2023-01-15T03:03:46;99744.97;;;16.35;68.86
48942;BME280;35340;52.378;4.648;2023-01-15T03:06:18;99752.75;;;16.35;68.83
48942;BME280;35340;52.378;4.648;2023-01-15T03:08:45;99735.44;;;16.36;69.15
48942;BME280;35340;52.378;4.648;2023-01-15T03:11:13;99732.00;;;16.35;68.94
48942;BME280;35340;52.378;4.648;2023-01-15T03:19:14;99746.69;;;16.35;69.13
48942;BME280;35340;52.378;4.648;2023-01-15T03:22:02;99738.91;;;16.35;68.82
48942;BME280;35340;52.378;4.648;2023-01-15T03:24:40;99739.81;;;16.34;69.07
48942;BME280;35340;52.378;4.648;2023-01-15T03:27:06;99734.63;;;16.34;68.92
48942;BME280;35340;52.378;4.648;2023-01-15T03:29:37;99736.38;;;16.33;68.92
48942;BME280;35340;52.378;4.648;2023-01-15T03:32:03;99732.88;;;16.33;69.18
48942;BME280;35340;52.378;4.648;2023-01-15T03:34:49;99733.78;;;16.33;68.92
48942;BME280;35340;52.378;4.648;2023-01-15T03:37:16;99743.25;;;16.34;68.94
48942;BME280;35340;52.378;4.648;2023-01-15T03:39:42;99737.22;;;16.34;68.82
48942;BME280;35340;52.378;4.648;2023-01-15T03:45:25;99738.09;;;16.33;69.10
48942;BME280;35340;52.378;4.648;2023-01-15T03:48:02;99732.88;;;16.33;68.78
48942;BME280;35340;52.378;4.648;2023-01-15T03:50:52;99728.59;;;16.32;69.09
48942;BME280;35340;52.378;4.648;2023-01-15T03:53:30;99719.06;;;16.32;68.61
48942;BME280;35340;52.378;4.648;2023-01-15T03:56:08;99726.84;;;16.32;69.00
48942;BME280;35340;52.378;4.648;2023-01-15T03:58:42;99727.75;;;16.31;68.82
48942;BME280;35340;52.378;4.648;2023-01-15T04:01:12;99719.09;;;16.31;68.57
48942;BME280;35340;52.378;4.648;2023-01-15T04:03:40;99717.38;;;16.31;68.83
48942;BME280;35340;52.378;4.648;2023-01-15T04:06:07;99721.66;;;16.32;68.74
48942;BME280;35340;52.378;4.648;2023-01-15T04:08:37;99717.41;;;16.30;68.57
48942;BME280;35340;52.378;4.648;2023-01-15T04:11:04;99723.44;;;16.30;68.88
48942;BME280;35340;52.378;4.648;2023-01-15T04:13:30;99720.84;;;16.30;68.61
48942;BME280;35340;52.378;4.648;2023-01-15T04:15:56;99727.78;;;16.30;68.61
48942;BME280;35340;52.378;4.648;2023-01-15T04:18:21;99727.78;;;16.30;68.78
48942;BME280;35340;52.378;4.648;2023-01-15T04:20:47;99722.59;;;16.30;68.75
48942;BME280;35340;52.378;4.648;2023-01-15T04:23:13;99725.19;;;16.30;68.67
48942;BME280;35340;52.378;4.648;2023-01-15T04:25:39;99724.34;;;16.29;68.49
48942;BME280;35340;52.378;4.648;2023-01-15T04:28:06;99720.84;;;16.29;68.40
48942;BME280;35340;52.378;4.648;2023-01-15T04:30:32;99722.59;;;16.28;68.53
48942;BME280;35340;52.378;4.648;2023-01-15T04:32:57;99729.56;;;16.28;68.47
48942;BME280;35340;52.378;4.648;2023-01-15T04:35:23;99718.25;;;16.29;68.37
48942;BME280;35340;52.378;4.648;2023-01-15T04:37:48;99716.53;;;16.29;68.41
48942;BME280;35340;52.378;4.648;2023-01-15T04:40:14;99716.53;;;16.29;68.27
48942;BME280;35340;52.378;4.648;2023-01-15T04:42:59;99726.06;;;16.29;68.28
48942;BME280;35340;52.378;4.648;2023-01-15T04:45:44;99715.72;;;16.27;68.20
48942;BME280;35340;52.378;4.648;2023-01-15T04:48:10;99711.41;;;16.26;68.12
48942;BME280;35340;52.378;4.648;2023-01-15T04:50:37;99714.88;;;16.27;68.59
48942;BME280;35340;52.378;4.648;2023-01-15T04:53:02;99717.47;;;16.27;68.28
48942;BME280;35340;52.378;4.648;2023-01-15T04:55:28;99714.00;;;16.26;67.86
48942;BME280;35340;52.378;4.648;2023-01-15T04:57:54;99712.28;;;16.27;67.80
48942;BME280;35340;52.378;4.648;2023-01-15T05:00:20;99708.81;;;16.26;67.97
48942;BME280;35340;52.378;4.648;2023-01-15T05:02:45;99718.34;;;16.25;67.94
48942;BME280;35340;52.378;4.648;2023-01-15T05:05:10;99705.38;;;16.25;68.08
48942;BME280;35340;52.378;4.648;2023-01-15T05:07:36;99695.81;;;16.26;68.12
48942;BME280;35340;52.378;4.648;2023-01-15T05:10:01;99697.56;;;16.27;68.45
48942;BME280;35340;52.378;4.648;2023-01-15T05:12:26;99701.91;;;16.27;68.19
48942;BME280;35340;52.378;4.648;2023-01-15T05:14:52;99702.75;;;16.27;68.06
48942;BME280;35340;52.378;4.648;2023-01-15T05:17:17;99706.19;;;16.28;68.31
48942;BME280;35340;52.378;4.648;2023-01-15T05:19:43;99705.34;;;16.27;68.05
48942;BME280;35340;52.378;4.648;2023-01-15T05:22:08;99690.59;;;16.28;68.25
48942;BME280;35340;52.378;4.648;2023-01-15T05:24:34;99699.31;;;16.27;67.99
48942;BME280;35340;52.378;4.648;2023-01-15T05:26:59;99711.41;;;16.26;67.92
48942;BME280;35340;52.378;4.648;2023-01-15T05:29:25;99696.72;;;16.27;67.76
48942;BME280;35340;52.378;4.648;2023-01-15T05:31:50;99689.75;;;16.27;67.94
48942;BME280;35340;52.378;4.648;2023-01-15T05:34:16;99693.22;;;16.26;67.90
48942;BME280;35340;52.378;4.648;2023-01-15T05:36:41;99684.59;;;16.25;67.57
48942;BME280;35340;52.378;4.648;2023-01-15T05:39:07;99695.88;;;16.24;67.67
48942;BME280;35340;52.378;4.648;2023-01-15T05:41:32;99687.19;;;16.25;67.81
48942;BME280;35340;52.378;4.648;2023-01-15T05:44:13;99678.56;;;16.25;67.28
48942;BME280;35340;52.378;4.648;2023-01-15T05:46:41;99681.16;;;16.25;67.39
48942;BME280;35340;52.378;4.648;2023-01-15T05:49:09;99695.81;;;16.26;67.57
48942;BME280;35340;52.378;4.648;2023-01-15T05:51:35;99682.91;;;16.24;67.28
48942;BME280;35340;52.378;4.648;2023-01-15T05:54:02;99685.50;;;16.24;67.37
48942;BME280;35340;52.378;4.648;2023-01-15T05:56:28;99694.13;;;16.25;67.15
48942;BME280;35340;52.378;4.648;2023-01-15T05:58:53;99693.28;;;16.24;67.14
48942;BME280;35340;52.378;4.648;2023-01-15T06:01:19;99698.47;;;16.24;67.21
48942;BME280;35340;52.378;4.648;2023-01-15T06:03:45;99700.19;;;16.24;67.27
48942;BME280;35340;52.378;4.648;2023-01-15T06:06:13;99687.22;;;16.24;67.19
48942;BME280;35340;52.378;4.648;2023-01-15T06:08:39;99693.31;;;16.23;67.39
48942;BME280;35340;52.378;4.648;2023-01-15T06:11:05;99698.50;;;16.23;66.87
48942;BME280;35340;52.378;4.648;2023-01-15T06:13:31;99693.28;;;16.24;66.85
48942;BME280;35340;52.378;4.648;2023-01-15T06:15:58;99687.28;;;16.22;66.95
48942;BME280;35340;52.378;4.648;2023-01-15T06:18:23;99693.31;;;16.23;66.58
48942;BME280;35340;52.378;4.648;2023-01-15T06:20:49;99693.31;;;16.23;66.78
48942;BME280;35340;52.378;4.648;2023-01-15T06:23:16;99695.06;;;16.22;66.76
48942;BME280;35340;52.378;4.648;2023-01-15T06:25:41;99694.16;;;16.23;66.57
48942;BME280;35340;52.378;4.648;2023-01-15T06:28:07;99706.28;;;16.24;66.97
48942;BME280;35340;52.378;4.648;2023-01-15T06:30:33;99714.94;;;16.22;66.66
48942;BME280;35340;52.378;4.648;2023-01-15T06:32:59;99708.88;;;16.23;66.66
48942;BME280;35340;52.378;4.648;2023-01-15T06:35:25;99719.28;;;16.23;66.17
48942;BME280;35340;52.378;4.648;2023-01-15T06:37:51;99713.22;;;16.22;66.20
48942;BME280;35340;52.378;4.648;2023-01-15T06:40:17;99707.16;;;16.22;66.16
48942;BME280;35340;52.378;4.648;2023-01-15T06:42:42;99695.06;;;16.22;66.13
48942;BME280;35340;52.378;4.648;2023-01-15T06:45:26;99687.28;;;16.22;66.43
48942;BME280;35340;52.378;4.648;2023-01-15T06:48:12;99688.97;;;16.23;66.55
48942;BME280;35340;52.378;4.648;2023-01-15T06:50:37;99685.53;;;16.23;66.10
48942;BME280;35340;52.378;4.648;2023-01-15T06:53:03;99686.41;;;16.22;66.30
48942;BME280;35340;52.378;4.648;2023-01-15T06:55:28;99679.50;;;16.22;66.18
48942;BME280;35340;52.378;4.648;2023-01-15T06:57:53;99681.19;;;16.23;66.09
48942;BME280;35340;52.378;4.648;2023-01-15T07:00:19;99673.41;;;16.22;66.36
48942;BME280;35340;52.378;4.648;2023-01-15T07:02:44;99690.72;;;16.23;65.88
48942;BME280;35340;52.378;4.648;2023-01-15T07:05:10;99677.75;;;16.23;66.27
48942;BME280;35340;52.378;4.648;2023-01-15T07:07:35;99687.28;;;16.22;66.30
48942;BME280;35340;52.378;4.648;2023-01-15T07:10:01;99682.94;;;16.23;65.87
48942;BME280;35340;52.378;4.648;2023-01-15T07:12:27;99679.44;;;16.24;65.92
48942;BME280;35340;52.378;4.648;2023-01-15T07:14:52;99667.34;;;16.23;66.12
48942;BME280;35340;52.378;4.648;2023-01-15T07:17:18;99666.50;;;16.22;65.81
48942;BME280;35340;52.378;4.648;2023-01-15T07:19:44;99646.59;;;16.23;65.35
48942;BME280;35340;52.378;4.648;2023-01-15T07:22:10;99643.16;;;16.22;65.79
48942;BME280;35340;52.378;4.648;2023-01-15T07:24:35;99656.97;;;16.23;65.68
48942;BME280;35340;52.378;4.648;2023-01-15T07:27:01;99656.94;;;16.24;66.16
48942;BME280;35340;52.378;4.648;2023-01-15T07:29:27;99645.75;;;16.22;65.51
48942;BME280;35340;52.378;4.648;2023-01-15T07:31:52;99643.09;;;16.24;65.69
48942;BME280;35340;52.378;4.648;2023-01-15T07:34:18;99643.97;;;16.24;66.00
48942;BME280;35340;52.378;4.648;2023-01-15T07:36:44;99670.78;;;16.25;65.73
48942;BME280;35340;52.378;4.648;2023-01-15T07:39:10;99663.84;;;16.24;65.54
48942;BME280;35340;52.378;4.648;2023-01-15T07:41:36;99655.19;;;16.25;65.31
48942;BME280;35340;52.378;4.648;2023-01-15T07:44:21;99662.13;;;16.24;65.74
48942;BME280;35340;52.378;4.648;2023-01-15T07:47:25;99656.94;;;16.24;65.35
48942;BME280;35340;52.378;4.648;2023-01-15T07:50:12;99635.28;;;16.25;65.68
48942;BME280;35340;52.378;4.648;2023-01-15T07:52:38;99655.19;;;16.25;65.38
48942;BME280;35340;52.378;4.648;2023-01-15T07:55:04;99654.28;;;16.26;65.81
48942;BME280;35340;52.378;4.648;2023-01-15T07:57:29;99673.38;;;16.25;65.15
48942;BME280;35340;52.378;4.648;2023-01-15T07:59:55;99667.28;;;16.26;65.24
48942;BME280;35340;52.378;4.648;2023-01-15T08:02:20;99664.69;;;16.26;65.63
48942;BME280;35340;52.378;4.648;2023-01-15T08:04:45;99659.47;;;16.26;65.56
48942;BME280;35340;52.378;4.648;2023-01-15T08:07:13;99670.75;;;16.27;65.26
48942;BME280;35340;52.378;4.648;2023-01-15T08:09:39;99675.03;;;16.28;65.25
48942;BME280;35340;52.378;4.648;2023-01-15T08:12:05;99681.97;;;16.27;65.69
48942;BME280;35340;52.378;4.648;2023-01-15T08:14:49;99670.69;;;16.28;65.35
48942;BME280;35340;52.378;4.648;2023-01-15T08:17:33;99665.50;;;16.28;65.27
48942;BME280;35340;52.378;4.648;2023-01-15T08:19:59;99668.06;;;16.30;65.62
48942;BME280;35340;52.378;4.648;2023-01-15T08:22:25;99659.44;;;16.29;65.11
48942;BME280;35340;52.378;4.648;2023-01-15T08:24:50;99662.91;;;16.28;65.22
48942;BME280;35340;52.378;4.648;2023-01-15T08:27:16;99656.84;;;16.29;65.18
48942;BME280;35340;52.378;4.648;2023-01-15T08:29:41;99657.69;;;16.30;65.69
48942;BME280;35340;52.378;4.648;2023-01-15T08:32:06;99673.25;;;16.30;65.18
48942;BME280;35340;52.378;4.648;2023-01-15T08:34:32;99656.84;;;16.29;65.12
48942;BME280;35340;52.378;4.648;2023-01-15T08:36:58;99662.88;;;16.30;65.28
48942;BME280;35340;52.378;4.648;2023-01-15T08:39:26;99656.78;;;16.31;64.97
48942;BME280;35340;52.378;4.648;2023-01-15T08:41:53;99658.56;;;16.29;65.33
48942;BME280;35340;52.378;4.648;2023-01-15T08:44:18;99670.66;;;16.30;65.36
48942;BME280;35340;52.378;4.648;2023-01-15T08:46:46;99657.69;;;16.30;65.70
48942;BME280;35340;52.378;4.648;2023-01-15T08:49:12;99667.13;;;16.32;64.83
48942;BME280;35340;52.378;4.648;2023-01-15T08:51:37;99665.38;;;16.33;65.13
48942;BME280;35340;52.378;4.648;2023-01-15T08:54:02;99656.75;;;16.32;65.43
48942;BME280;35340;52.378;4.648;2023-01-15T08:56:28;99648.09;;;16.33;64.82
48942;BME280;35340;52.378;4.648;2023-01-15T08:58:53;99667.09;;;16.35;64.89
48942;BME280;35340;52.378;4.648;2023-01-15T09:01:19;99664.50;;;16.35;65.16
48942;BME280;35340;52.378;4.648;2023-01-15T09:03:44;99663.59;;;16.36;64.67
48942;BME280;35340;52.378;4.648;2023-01-15T09:06:10;99663.59;;;16.36;64.58
48942;BME280;35340;52.378;4.648;2023-01-15T09:08:36;99650.59;;;16.36;65.02
48942;BME280;35340;52.378;4.648;2023-01-15T09:11:03;99660.97;;;16.38;64.55
48942;BME280;35340;52.378;4.648;2023-01-15T09:13:29;99663.50;;;16.39;64.99
48942;BME280;35340;52.378;4.648;2023-01-15T09:15:59;99654.03;;;16.38;64.70
48942;BME280;35340;52.378;4.648;2023-01-15T09:18:25;99660.91;;;16.39;64.75
48942;BME280;35340;52.378;4.648;2023-01-15T09:20:50;99651.34;;;16.41;64.89
48942;BME280;35340;52.378;4.648;2023-01-15T09:23:16;99661.72;;;16.41;65.20
48942;BME280;35340;52.378;4.648;2023-01-15T09:25:53;99659.09;;;16.43;64.62
48942;BME280;35340;52.378;4.648;2023-01-15T09:28:18;99657.34;;;16.43;64.64
48942;BME280;35340;52.378;4.648;2023-01-15T09:30:44;99655.56;;;16.45;64.87
48942;BME280;35340;52.378;4.648;2023-01-15T09:33:09;99656.47;;;16.44;64.40
48942;BME280;35340;52.378;4.648;2023-01-15T09:35:35;99657.31;;;16.45;64.81
48942;BME280;35340;52.378;4.648;2023-01-15T09:38:01;99665.13;;;16.43;64.44
48942;BME280;35340;52.378;4.648;2023-01-15T09:41:19;99660.78;;;16.45;64.11
48942;BME280;35340;52.378;4.648;2023-01-15T09:46:15;99665.09;;;16.47;64.21
48942;BME280;35340;52.378;4.648;2023-01-15T09:48:45;99670.28;;;16.47;64.27
48942;BME280;35340;52.378;4.648;2023-01-15T09:51:16;99669.38;;;16.48;64.32
48942;BME280;35340;52.378;4.648;2023-01-15T09:53:53;99681.50;;;16.47;64.42
48942;BME280;35340;52.378;4.648;2023-01-15T09:56:23;99678.09;;;16.45;64.21
48942;BME280;35340;52.378;4.648;2023-01-15T09:58:50;99661.63;;;16.46;64.20
48942;BME280;35340;52.378;4.648;2023-01-15T10:01:19;99685.88;;;16.47;63.77
48942;BME280;35340;52.378;4.648;2023-01-15T10:03:56;99679.84;;;16.44;63.58
48942;BME280;35340;52.378;4.648;2023-01-15T10:06:27;99665.09;;;16.47;63.65
48942;BME280;35340;52.378;4.648;2023-01-15T10:11:38;99663.34;;;16.83;62.71
48942;BME280;35340;52.378;4.648;2023-01-15T10:14:33;99677.00;;;16.91;61.78
48942;BME280;35340;52.378;4.648;2023-01-15T10:17:05;99690.81;;;16.93;61.46
48942;BME280;35340;52.378;4.648;2023-01-15T10:19:38;99689.00;;;16.97;61.55
48942;BME280;35340;52.378;4.648;2023-01-15T10:22:11;99701.06;;;16.99;61.30
48942;BME280;35340;52.378;4.648;2023-01-15T10:24:46;99678.63;;;16.97;61.44
48942;BME280;35340;52.378;4.648;2023-01-15T10:27:21;99682.97;;;16.96;61.39
48942;BME280;35340;52.378;4.648;2023-01-15T10:29:52;99692.47;;;16.97;61.03
48942;BME280;35340;52.378;4.648;2023-01-15T10:32:32;99714.94;;;16.98;61.37
48942;BME280;35340;52.378;4.648;2023-01-15T10:35:19;99704.53;;;16.98;61.26
48942;BME280;35340;52.378;4.648;2023-01-15T10:43:16;99706.31;;;16.98;60.81
48942;BME280;35340;52.378;4.648;2023-01-15T10:46:06;99698.50;;;16.98;61.16
48942;BME280;35340;52.378;4.648;2023-01-15T10:48:40;99713.25;;;16.97;61.36
48942;BME280;35340;52.378;4.648;2023-01-15T10:51:27;99697.66;;;16.97;60.74
48942;BME280;35340;52.378;4.648;2023-01-15T10:53:57;99715.84;;;16.97;60.60
48942;BME280;35340;52.378;4.648;2023-01-15T10:56:33;99717.59;;;16.97;60.96
48942;BME280;35340;52.378;4.648;2023-01-15T10:59:12;99718.47;;;16.96;60.74
48942;BME280;35340;52.378;4.648;2023-01-15T11:01:39;99715.94;;;16.94;60.53
48942;BME280;35340;52.378;4.648;2023-01-15T11:04:08;99711.59;;;16.95;60.67
48942;BME280;35340;52.378;4.648;2023-01-15T11:06:34;99713.28;;;16.96;60.79
48942;BME280;35340;52.378;4.648;2023-01-15T11:09:00;99718.47;;;16.96;60.74
48942;BME280;35340;52.378;4.648;2023-01-15T11:11:32;99730.59;;;16.97;60.54
48942;BME280;35340;52.378;4.648;2023-01-15T11:14:17;99722.81;;;16.95;60.79
48942;BME280;35340;52.378;4.648;2023-01-15T11:17:01;99728.03;;;16.95;60.49
48942;BME280;35340;52.378;4.648;2023-01-15T11:19:37;99717.63;;;16.95;60.76
48942;BME280;35340;52.378;4.648;2023-01-15T11:22:22;99712.44;;;16.95;60.41
48942;BME280;35340;52.378;4.648;2023-01-15T11:24:52;99721.94;;;16.96;60.22
48942;BME280;35340;52.378;4.648;2023-01-15T11:27:24;99702.94;;;16.94;60.70
48942;BME280;35340;52.378;4.648;2023-01-15T11:29:59;99714.09;;;16.98;60.38
48942;BME280;35340;52.378;4.648;2023-01-15T11:32:34;99702.03;;;16.95;60.44
48942;BME280;35340;52.378;4.648;2023-01-15T11:35:03;99715.31;;;16.83;58.62
48942;BME280;35340;52.378;4.648;2023-01-15T11:37:37;99703.69;;;16.62;60.12
48942;BME280;35340;52.378;4.648;2023-01-15T11:40:03;99710.53;;;16.64;60.40
48942;BME280;35340;52.378;4.648;2023-01-15T11:42:32;99712.91;;;16.74;60.58
48942;BME280;35340;52.378;4.648;2023-01-15T11:45:20;99724.91;;;16.79;60.92
48942;BME280;35340;52.378;4.648;2023-01-15T11:48:22;99713.47;;;16.88;60.39
48942;BME280;35340;52.378;4.648;2023-01-15T11:51:12;99708.28;;;16.88;59.81
48942;BME280;35340;52.378;4.648;2023-01-15T11:53:53;99713.41;;;16.91;59.88
48942;BME280;35340;52.378;4.648;2023-01-15T11:56:25;99715.13;;;16.92;59.94
48942;BME280;35340;52.378;4.648;2023-01-15T11:58:54;99706.44;;;16.92;59.59
48942;BME280;35340;52.378;4.648;2023-01-15T12:01:27;99713.34;;;16.94;59.97
48942;BME280;35340;52.378;4.648;2023-01-15T12:03:57;99716.75;;;16.96;60.04
48942;BME280;35340;52.378;4.648;2023-01-15T12:06:25;99734.03;;;16.97;59.62
48942;BME280;35340;52.378;4.648;2023-01-15T12:11:46;99730.50;;;17.00;59.50
48942;BME280;35340;52.378;4.648;2023-01-15T12:17:25;99731.31;;;17.02;59.03
48942;BME280;35340;52.378;4.648;2023-01-15T12:33:54;99716.63;;;17.01;58.97
48942;BME280;35340;52.378;4.648;2023-01-15T12:36:29;99722.69;;;17.01;59.27
48942;BME280;35340;52.378;4.648;2023-01-15T12:39:04;99707.06;;;17.03;59.44
48942;BME280;35340;52.378;4.648;2023-01-15T12:41:37;99722.59;;;17.04;59.89
48942;BME280;35340;52.378;4.648;2023-01-15T12:44:40;99718.22;;;17.06;59.76
48942;BME280;35340;52.378;4.648;2023-01-15T12:47:37;99718.22;;;17.06;59.95
48942;BME280;35340;52.378;4.648;2023-01-15T12:50:22;99705.22;;;17.06;60.21
48942;BME280;35340;52.378;4.648;2023-01-15T12:52:58;99706.97;;;17.06;60.00
48942;BME280;35340;52.378;4.648;2023-01-15T12:55:30;99710.41;;;17.06;60.11
48942;BME280;35340;52.378;4.648;2023-01-15T12:58:00;99723.41;;;17.06;60.29
48942;BME280;35340;52.378;4.648;2023-01-15T13:00:38;99705.19;;;17.08;60.13
48942;BME280;35340;52.378;4.648;2023-01-15T13:05:45;99711.16;;;17.12;60.00
48942;BME280;35340;52.378;4.648;2023-01-15T13:08:26;99708.56;;;17.12;60.08
48942;BME280;35340;52.378;4.648;2023-01-15T13:10:54;99716.38;;;17.12;59.97
48942;BME280;35340;52.378;4.648;2023-01-15T13:13:29;99722.41;;;17.12;59.92
48942;BME280;35340;52.378;4.648;2023-01-15T13:18:31;99731.97;;;17.12;59.86
48942;BME280;35340;52.378;4.648;2023-01-15T13:21:01;99739.75;;;17.12;60.21
48942;BME280;35340;52.378;4.648;2023-01-15T13:31:57;99737.81;;;17.20;59.48
48942;BME280;35340;52.378;4.648;2023-01-15T13:34:37;99755.25;;;17.16;60.71
48942;BME280;35340;52.378;4.648;2023-01-15T13:40:00;99785.28;;;17.28;60.09
48942;BME280;35340;52.378;4.648;2023-01-15T13:42:27;99775.00;;;17.22;61.01
48942;BME280;35340;52.378;4.648;2023-01-15T13:44:58;99773.19;;;17.27;62.27
48942;BME280;35340;52.378;4.648;2023-01-15T13:47:31;99776.03;;;17.16;61.54
48942;BME280;35340;52.378;4.648;2023-01-15T13:49:59;99782.19;;;17.12;61.87
48942;BME280;35340;52.378;4.648;2023-01-15T13:52:30;99800.44;;;17.09;61.23
48942;BME280;35340;52.378;4.648;2023-01-15T13:55:21;99792.75;;;17.06;61.62
48942;BME280;35340;52.378;4.648;2023-01-15T13:57:50;99794.50;;;17.05;61.49
48942;BME280;35340;52.378;4.648;2023-01-15T14:02:58;99802.34;;;17.02;61.30
48942;BME280;35340;52.378;4.648;2023-01-15T14:07:54;99815.34;;;17.02;61.81
48942;BME280;35340;52.378;4.648;2023-01-15T14:10:25;99814.50;;;17.02;61.52
48942;BME280;35340;52.378;4.648;2023-01-15T14:23:21;99832.63;;;17.05;61.32
48942;BME280;35340;52.378;4.648;2023-01-15T14:28:57;99839.56;;;17.04;61.65
48942;BME280;35340;52.378;4.648;2023-01-15T14:34:22;99843.91;;;17.04;62.36
48942;BME280;35340;52.378;4.648;2023-01-15T14:36:53;99827.50;;;17.02;62.15
48942;BME280;35340;52.378;4.648;2023-01-15T14:39:28;99829.16;;;17.04;61.60
48942;BME280;35340;52.378;4.648;2023-01-15T14:41:58;99833.50;;;17.04;62.74
48942;BME280;35340;52.378;4.648;2023-01-15T14:44:44;99843.06;;;17.03;62.44